sensor_id;sensor_type;location;lat;lon;timestamp;P1;durP1;ratioP1;P2;durP2;ratioP2
46941;SDS011;32676;52.630;4.896;2023-10-09T00:01:41;33.35;;;17.63;;
46941;SDS011;32676;52.630;4.896;2023-10-09T00:04:09;40.22;;;19.55;;
46941;SDS011;32676;52.630;4.896;2023-10-09T00:06:36;41.55;;;19.45;;
46941;SDS011;32676;52.630;4.896;2023-10-09T00:09:03;37.70;;;19.00;;
46941;SDS011;32676;52.630;4.896;2023-10-09T00:11:43;35.60;;;18.17;;
46941;SDS011;32676;52.630;4.896;2023-10-09T00:14:10;37.97;;;18.25;;
46941;SDS011;32676;52.630;4.896;2023-10-09T00:16:36;38.10;;;18.70;;
46941;SDS011;32676;52.630;4.896;2023-10-09T00:19:09;37.20;;;17.13;;
46941;SDS011;32676;52.630;4.896;2023-10-09T00:21:44;43.33;;;17.77;;
46941;SDS011;32676;52.630;4.896;2023-10-09T00:24:12;33.30;;;17.70;;
46941;SDS011;32676;52.630;4.896;2023-10-09T00:26:51;35.50;;;17.23;;
46941;SDS011;32676;52.630;4.896;2023-10-09T00:29:22;33.45;;;18.17;;
46941;SDS011;32676;52.630;4.896;2023-10-09T00:31:53;54.42;;;19.90;;
46941;SDS011;32676;52.630;4.896;2023-10-09T00:34:30;32.47;;;17.90;;
46941;SDS011;32676;52.630;4.896;2023-10-09T00:37:04;33.80;;;17.52;;
46941;SDS011;32676;52.630;4.896;2023-10-09T00:39:36;24.58;;;14.75;;
46941;SDS011;32676;52.630;4.896;2023-10-09T00:42:09;26.00;;;14.48;;
46941;SDS011;32676;52.630;4.896;2023-10-09T00:44:39;30.92;;;14.48;;
46941;SDS011;32676;52.630;4.896;2023-10-09T00:47:07;29.95;;;13.63;;
46941;SDS011;32676;52.630;4.896;2023-10-09T00:50:00;34.47;;;13.63;;
46941;SDS011;32676;52.630;4.896;2023-10-09T00:52:36;23.50;;;10.00;;
46941;SDS011;32676;52.630;4.896;2023-10-09T00:55:08;21.70;;;9.68;;
46941;SDS011;32676;52.630;4.896;2023-10-09T00:57:41;26.35;;;10.05;;
46941;SDS011;32676;52.630;4.896;2023-10-09T01:00:15;25.75;;;8.02;;
46941;SDS011;32676;52.630;4.896;2023-10-09T01:02:57;17.52;;;7.22;;
46941;SDS011;32676;52.630;4.896;2023-10-09T01:05:44;33.20;;;9.88;;
46941;SDS011;32676;52.630;4.896;2023-10-09T01:08:17;19.42;;;7.43;;
46941;SDS011;32676;52.630;4.896;2023-10-09T01:10:50;19.45;;;7.85;;
46941;SDS011;32676;52.630;4.896;2023-10-09T01:13:22;21.48;;;8.20;;
46941;SDS011;32676;52.630;4.896;2023-10-09T01:15:53;16.20;;;7.68;;
46941;SDS011;32676;52.630;4.896;2023-10-09T01:18:23;25.63;;;7.05;;
46941;SDS011;32676;52.630;4.896;2023-10-09T01:20:57;18.98;;;7.78;;
46941;SDS011;32676;52.630;4.896;2023-10-09T01:23:25;13.40;;;7.28;;
46941;SDS011;32676;52.630;4.896;2023-10-09T01:25:54;23.75;;;9.00;;
46941;SDS011;32676;52.630;4.896;2023-10-09T01:28:21;13.55;;;6.45;;
46941;SDS011;32676;52.630;4.896;2023-10-09T01:30:49;14.48;;;6.55;;
46941;SDS011;32676;52.630;4.896;2023-10-09T01:33:16;22.48;;;6.78;;
46941;SDS011;32676;52.630;4.896;2023-10-09T01:35:49;22.88;;;7.25;;
46941;SDS011;32676;52.630;4.896;2023-10-09T01:38:21;25.20;;;6.82;;
46941;SDS011;32676;52.630;4.896;2023-10-09T01:40:58;22.35;;;7.05;;
46941;SDS011;32676;52.630;4.896;2023-10-09T01:43:32;17.35;;;6.65;;
46941;SDS011;32676;52.630;4.896;2023-10-09T01:45:59;18.70;;;6.07;;
46941;SDS011;32676;52.630;4.896;2023-10-09T01:48:29;25.23;;;7.72;;
46941;SDS011;32676;52.630;4.896;2023-10-09T01:51:01;21.55;;;6.03;;
46941;SDS011;32676;52.630;4.896;2023-10-09T01:53:30;18.63;;;6.57;;
46941;SDS011;32676;52.630;4.896;2023-10-09T01:56:08;17.50;;;6.30;;
46941;SDS011;32676;52.630;4.896;2023-10-09T01:58:40;23.98;;;8.55;;
46941;SDS011;32676;52.630;4.896;2023-10-09T02:01:08;14.15;;;6.22;;
46941;SDS011;32676;52.630;4.896;2023-10-09T02:03:35;20.05;;;6.32;;
46941;SDS011;32676;52.630;4.896;2023-10-09T02:06:02;30.25;;;7.40;;
46941;SDS011;32676;52.630;4.896;2023-10-09T02:08:38;15.45;;;6.38;;
46941;SDS011;32676;52.630;4.896;2023-10-09T02:11:04;17.38;;;6.00;;
46941;SDS011;32676;52.630;4.896;2023-10-09T02:13:33;21.52;;;6.10;;
46941;SDS011;32676;52.630;4.896;2023-10-09T02:16:00;13.93;;;7.05;;
46941;SDS011;32676;52.630;4.896;2023-10-09T02:18:39;20.35;;;5.40;;
46941;SDS011;32676;52.630;4.896;2023-10-09T02:21:17;23.40;;;5.93;;
46941;SDS011;32676;52.630;4.896;2023-10-09T02:23:53;24.08;;;5.85;;
46941;SDS011;32676;52.630;4.896;2023-10-09T02:26:22;16.17;;;6.28;;
46941;SDS011;32676;52.630;4.896;2023-10-09T02:28:52;20.58;;;5.93;;
46941;SDS011;32676;52.630;4.896;2023-10-09T02:31:23;20.42;;;6.60;;
46941;SDS011;32676;52.630;4.896;2023-10-09T02:33:53;16.73;;;6.00;;
46941;SDS011;32676;52.630;4.896;2023-10-09T02:36:21;11.88;;;5.70;;
46941;SDS011;32676;52.630;4.896;2023-10-09T02:38:48;22.40;;;6.97;;
46941;SDS011;32676;52.630;4.896;2023-10-09T02:41:18;15.50;;;4.82;;
46941;SDS011;32676;52.630;4.896;2023-10-09T02:43:55;23.25;;;5.47;;
46941;SDS011;32676;52.630;4.896;2023-10-09T02:46:23;17.35;;;5.68;;
46941;SDS011;32676;52.630;4.896;2023-10-09T02:48:56;16.13;;;5.22;;
46941;SDS011;32676;52.630;4.896;2023-10-09T02:51:24;15.55;;;5.63;;
46941;SDS011;32676;52.630;4.896;2023-10-09T02:53:59;11.43;;;5.03;;
46941;SDS011;32676;52.630;4.896;2023-10-09T02:56:33;16.58;;;6.05;;
46941;SDS011;32676;52.630;4.896;2023-10-09T02:59:09;19.63;;;6.45;;
46941;SDS011;32676;52.630;4.896;2023-10-09T03:01:38;15.20;;;4.55;;
46941;SDS011;32676;52.630;4.896;2023-10-09T03:04:06;22.50;;;7.93;;
46941;SDS011;32676;52.630;4.896;2023-10-09T03:06:36;20.85;;;5.78;;
46941;SDS011;32676;52.630;4.896;2023-10-09T03:09:08;16.98;;;5.88;;
46941;SDS011;32676;52.630;4.896;2023-10-09T03:11:43;16.08;;;5.72;;
46941;SDS011;32676;52.630;4.896;2023-10-09T03:14:12;15.07;;;5.10;;
46941;SDS011;32676;52.630;4.896;2023-10-09T03:16:39;11.95;;;6.05;;
46941;SDS011;32676;52.630;4.896;2023-10-09T03:19:05;16.85;;;6.20;;
46941;SDS011;32676;52.630;4.896;2023-10-09T03:21:32;24.27;;;7.40;;
46941;SDS011;32676;52.630;4.896;2023-10-09T03:23:59;18.20;;;5.50;;
46941;SDS011;32676;52.630;4.896;2023-10-09T03:26:29;14.98;;;5.20;;
46941;SDS011;32676;52.630;4.896;2023-10-09T03:28:56;17.23;;;4.88;;
46941;SDS011;32676;52.630;4.896;2023-10-09T03:31:27;13.15;;;5.68;;
46941;SDS011;32676;52.630;4.896;2023-10-09T03:33:56;13.45;;;6.25;;
46941;SDS011;32676;52.630;4.896;2023-10-09T03:36:22;21.45;;;6.45;;
46941;SDS011;32676;52.630;4.896;2023-10-09T03:38:51;16.23;;;6.22;;
46941;SDS011;32676;52.630;4.896;2023-10-09T03:41:20;15.02;;;5.85;;
46941;SDS011;32676;52.630;4.896;2023-10-09T03:43:46;16.55;;;5.93;;
46941;SDS011;32676;52.630;4.896;2023-10-09T03:46:13;21.38;;;5.82;;
46941;SDS011;32676;52.630;4.896;2023-10-09T03:48:47;16.77;;;4.97;;
46941;SDS011;32676;52.630;4.896;2023-10-09T03:51:14;19.30;;;5.53;;
46941;SDS011;32676;52.630;4.896;2023-10-09T03:53:46;12.95;;;5.70;;
46941;SDS011;32676;52.630;4.896;2023-10-09T03:56:13;11.10;;;5.47;;
46941;SDS011;32676;52.630;4.896;2023-10-09T03:58:41;15.98;;;5.20;;
46941;SDS011;32676;52.630;4.896;2023-10-09T04:01:10;20.10;;;5.80;;
46941;SDS011;32676;52.630;4.896;2023-10-09T04:03:49;15.32;;;5.25;;
46941;SDS011;32676;52.630;4.896;2023-10-09T04:06:20;23.05;;;8.50;;
46941;SDS011;32676;52.630;4.896;2023-10-09T04:17:19;10.13;;;5.53;;
46941;SDS011;32676;52.630;4.896;2023-10-09T04:20:04;17.90;;;7.18;;
46941;SDS011;32676;52.630;4.896;2023-10-09T04:22:48;19.38;;;6.55;;
46941;SDS011;32676;52.630;4.896;2023-10-09T04:25:27;17.92;;;6.13;;
46941;SDS011;32676;52.630;4.896;2023-10-09T04:27:56;16.60;;;5.53;;
46941;SDS011;32676;52.630;4.896;2023-10-09T04:30:34;16.50;;;6.25;;
46941;SDS011;32676;52.630;4.896;2023-10-09T04:33:05;20.08;;;4.88;;
46941;SDS011;32676;52.630;4.896;2023-10-09T04:35:40;20.98;;;5.38;;
46941;SDS011;32676;52.630;4.896;2023-10-09T04:38:28;25.50;;;6.18;;
46941;SDS011;32676;52.630;4.896;2023-10-09T04:40:59;17.15;;;5.95;;
46941;SDS011;32676;52.630;4.896;2023-10-09T04:43:30;14.23;;;4.93;;
46941;SDS011;32676;52.630;4.896;2023-10-09T04:45:59;19.60;;;6.15;;
46941;SDS011;32676;52.630;4.896;2023-10-09T04:48:34;29.45;;;7.20;;
46941;SDS011;32676;52.630;4.896;2023-10-09T04:51:04;14.88;;;5.47;;
46941;SDS011;32676;52.630;4.896;2023-10-09T04:53:51;25.15;;;5.68;;
46941;SDS011;32676;52.630;4.896;2023-10-09T04:56:25;23.52;;;5.93;;
46941;SDS011;32676;52.630;4.896;2023-10-09T04:58:56;13.63;;;4.88;;
46941;SDS011;32676;52.630;4.896;2023-10-09T05:01:28;21.08;;;5.57;;
46941;SDS011;32676;52.630;4.896;2023-10-09T05:04:08;22.55;;;5.45;;
46941;SDS011;32676;52.630;4.896;2023-10-09T05:06:53;21.85;;;6.43;;
46941;SDS011;32676;52.630;4.896;2023-10-09T05:09:25;21.92;;;6.45;;
46941;SDS011;32676;52.630;4.896;2023-10-09T05:11:53;18.85;;;5.20;;
46941;SDS011;32676;52.630;4.896;2023-10-09T05:14:20;16.65;;;5.95;;
46941;SDS011;32676;52.630;4.896;2023-10-09T05:16:52;20.50;;;5.75;;
46941;SDS011;32676;52.630;4.896;2023-10-09T05:19:29;15.18;;;5.57;;
46941;SDS011;32676;52.630;4.896;2023-10-09T05:22:11;15.43;;;6.03;;
46941;SDS011;32676;52.630;4.896;2023-10-09T05:25:01;20.25;;;5.25;;
46941;SDS011;32676;52.630;4.896;2023-10-09T05:27:39;17.50;;;5.65;;
46941;SDS011;32676;52.630;4.896;2023-10-09T05:30:15;12.30;;;4.82;;
46941;SDS011;32676;52.630;4.896;2023-10-09T05:32:51;22.35;;;6.22;;
46941;SDS011;32676;52.630;4.896;2023-10-09T05:35:23;15.75;;;5.63;;
46941;SDS011;32676;52.630;4.896;2023-10-09T05:38:05;16.85;;;5.88;;
46941;SDS011;32676;52.630;4.896;2023-10-09T05:40:40;17.83;;;6.80;;
46941;SDS011;32676;52.630;4.896;2023-10-09T05:43:08;15.68;;;5.30;;
46941;SDS011;32676;52.630;4.896;2023-10-09T05:45:55;16.55;;;5.63;;
46941;SDS011;32676;52.630;4.896;2023-10-09T05:48:38;14.52;;;6.07;;
46941;SDS011;32676;52.630;4.896;2023-10-09T05:51:19;13.93;;;5.28;;
46941;SDS011;32676;52.630;4.896;2023-10-09T05:54:01;16.67;;;5.95;;
46941;SDS011;32676;52.630;4.896;2023-10-09T05:56:58;23.63;;;6.15;;
46941;SDS011;32676;52.630;4.896;2023-10-09T05:59:42;17.05;;;5.22;;
46941;SDS011;32676;52.630;4.896;2023-10-09T06:02:34;23.67;;;7.25;;
46941;SDS011;32676;52.630;4.896;2023-10-09T06:05:18;10.70;;;4.20;;
46941;SDS011;32676;52.630;4.896;2023-10-09T06:07:59;17.80;;;6.00;;
46941;SDS011;32676;52.630;4.896;2023-10-09T06:10:34;20.05;;;5.75;;
46941;SDS011;32676;52.630;4.896;2023-10-09T06:13:05;19.20;;;7.07;;
46941;SDS011;32676;52.630;4.896;2023-10-09T06:15:53;24.25;;;6.05;;
46941;SDS011;32676;52.630;4.896;2023-10-09T06:18:33;22.85;;;5.60;;
46941;SDS011;32676;52.630;4.896;2023-10-09T06:21:06;25.83;;;4.97;;
46941;SDS011;32676;52.630;4.896;2023-10-09T06:23:46;23.73;;;6.07;;
46941;SDS011;32676;52.630;4.896;2023-10-09T06:26:41;29.40;;;6.20;;
46941;SDS011;32676;52.630;4.896;2023-10-09T06:29:16;18.63;;;7.07;;
46941;SDS011;32676;52.630;4.896;2023-10-09T06:31:59;26.70;;;6.70;;
46941;SDS011;32676;52.630;4.896;2023-10-09T06:34:42;24.15;;;6.45;;
46941;SDS011;32676;52.630;4.896;2023-10-09T06:37:10;29.38;;;6.18;;
46941;SDS011;32676;52.630;4.896;2023-10-09T06:39:56;20.38;;;6.15;;
46941;SDS011;32676;52.630;4.896;2023-10-09T06:42:56;24.95;;;5.00;;
46941;SDS011;32676;52.630;4.896;2023-10-09T06:45:23;21.58;;;6.70;;
46941;SDS011;32676;52.630;4.896;2023-10-09T06:48:07;21.20;;;5.05;;
46941;SDS011;32676;52.630;4.896;2023-10-09T06:50:53;25.30;;;6.38;;
46941;SDS011;32676;52.630;4.896;2023-10-09T06:53:29;16.88;;;4.63;;
46941;SDS011;32676;52.630;4.896;2023-10-09T06:56:23;18.63;;;5.60;;
46941;SDS011;32676;52.630;4.896;2023-10-09T06:59:12;18.30;;;5.80;;
46941;SDS011;32676;52.630;4.896;2023-10-09T07:01:42;25.73;;;5.72;;
46941;SDS011;32676;52.630;4.896;2023-10-09T07:04:09;12.50;;;4.53;;
46941;SDS011;32676;52.630;4.896;2023-10-09T07:06:44;25.40;;;5.55;;
46941;SDS011;32676;52.630;4.896;2023-10-09T07:09:14;18.23;;;6.18;;
46941;SDS011;32676;52.630;4.896;2023-10-09T07:11:47;29.27;;;6.13;;
46941;SDS011;32676;52.630;4.896;2023-10-09T07:14:30;35.38;;;9.07;;
46941;SDS011;32676;52.630;4.896;2023-10-09T07:17:15;28.48;;;6.32;;
46941;SDS011;32676;52.630;4.896;2023-10-09T07:20:09;30.30;;;6.18;;
46941;SDS011;32676;52.630;4.896;2023-10-09T07:22:59;35.47;;;6.60;;
46941;SDS011;32676;52.630;4.896;2023-10-09T07:25:38;23.58;;;5.93;;
46941;SDS011;32676;52.630;4.896;2023-10-09T07:28:19;23.02;;;5.57;;
46941;SDS011;32676;52.630;4.896;2023-10-09T07:31:09;18.75;;;6.13;;
46941;SDS011;32676;52.630;4.896;2023-10-09T07:33:49;28.45;;;7.93;;
46941;SDS011;32676;52.630;4.896;2023-10-09T07:36:33;16.13;;;5.22;;
46941;SDS011;32676;52.630;4.896;2023-10-09T07:39:04;19.80;;;5.60;;
46941;SDS011;32676;52.630;4.896;2023-10-09T07:41:41;12.73;;;5.07;;
46941;SDS011;32676;52.630;4.896;2023-10-09T07:44:21;18.00;;;5.22;;
46941;SDS011;32676;52.630;4.896;2023-10-09T07:47:05;22.48;;;6.53;;
46941;SDS011;32676;52.630;4.896;2023-10-09T07:49:43;23.60;;;7.95;;
46941;SDS011;32676;52.630;4.896;2023-10-09T07:52:17;24.50;;;8.10;;
46941;SDS011;32676;52.630;4.896;2023-10-09T07:54:47;27.80;;;6.65;;
46941;SDS011;32676;52.630;4.896;2023-10-09T07:57:19;20.65;;;7.20;;
46941;SDS011;32676;52.630;4.896;2023-10-09T07:59:51;23.42;;;7.25;;
46941;SDS011;32676;52.630;4.896;2023-10-09T08:02:27;24.38;;;6.82;;
46941;SDS011;32676;52.630;4.896;2023-10-09T08:05:01;20.30;;;5.88;;
46941;SDS011;32676;52.630;4.896;2023-10-09T08:07:31;22.58;;;5.95;;
46941;SDS011;32676;52.630;4.896;2023-10-09T08:10:01;24.52;;;7.25;;
46941;SDS011;32676;52.630;4.896;2023-10-09T08:12:55;25.88;;;5.80;;
46941;SDS011;32676;52.630;4.896;2023-10-09T08:15:26;19.38;;;5.97;;
46941;SDS011;32676;52.630;4.896;2023-10-09T08:18:00;29.15;;;6.32;;
46941;SDS011;32676;52.630;4.896;2023-10-09T08:20:35;18.92;;;6.47;;
46941;SDS011;32676;52.630;4.896;2023-10-09T08:23:21;39.00;;;5.97;;
46941;SDS011;32676;52.630;4.896;2023-10-09T08:25:58;24.58;;;7.13;;
46941;SDS011;32676;52.630;4.896;2023-10-09T08:28:35;25.23;;;6.22;;
46941;SDS011;32676;52.630;4.896;2023-10-09T08:31:08;23.77;;;6.72;;
46941;SDS011;32676;52.630;4.896;2023-10-09T08:33:45;43.00;;;8.73;;
46941;SDS011;32676;52.630;4.896;2023-10-09T08:36:21;15.60;;;5.72;;
46941;SDS011;32676;52.630;4.896;2023-10-09T08:38:47;18.58;;;6.53;;
46941;SDS011;32676;52.630;4.896;2023-10-09T08:41:14;22.65;;;5.90;;
46941;SDS011;32676;52.630;4.896;2023-10-09T08:43:53;17.35;;;5.25;;
46941;SDS011;32676;52.630;4.896;2023-10-09T08:46:21;26.10;;;6.72;;
46941;SDS011;32676;52.630;4.896;2023-10-09T08:48:53;22.15;;;6.57;;
46941;SDS011;32676;52.630;4.896;2023-10-09T08:51:20;22.75;;;6.80;;
46941;SDS011;32676;52.630;4.896;2023-10-09T08:53:48;18.77;;;6.22;;
46941;SDS011;32676;52.630;4.896;2023-10-09T08:56:15;18.63;;;6.28;;
46941;SDS011;32676;52.630;4.896;2023-10-09T08:58:47;25.60;;;6.72;;
46941;SDS011;32676;52.630;4.896;2023-10-09T09:01:17;20.60;;;5.80;;
46941;SDS011;32676;52.630;4.896;2023-10-09T09:03:46;21.00;;;5.57;;
46941;SDS011;32676;52.630;4.896;2023-10-09T09:06:14;15.82;;;5.07;;
46941;SDS011;32676;52.630;4.896;2023-10-09T09:08:41;18.55;;;5.15;;
46941;SDS011;32676;52.630;4.896;2023-10-09T09:11:10;17.45;;;5.57;;
46941;SDS011;32676;52.630;4.896;2023-10-09T09:13:39;15.43;;;4.88;;
46941;SDS011;32676;52.630;4.896;2023-10-09T09:16:13;23.92;;;6.65;;
46941;SDS011;32676;52.630;4.896;2023-10-09T09:18:48;18.75;;;5.65;;
46941;SDS011;32676;52.630;4.896;2023-10-09T09:21:23;12.82;;;4.10;;
46941;SDS011;32676;52.630;4.896;2023-10-09T09:23:53;17.70;;;5.13;;
46941;SDS011;32676;52.630;4.896;2023-10-09T09:26:35;19.20;;;5.07;;
46941;SDS011;32676;52.630;4.896;2023-10-09T09:29:03;19.27;;;5.05;;
46941;SDS011;32676;52.630;4.896;2023-10-09T09:31:31;17.77;;;4.55;;
46941;SDS011;32676;52.630;4.896;2023-10-09T09:34:03;13.02;;;4.72;;
46941;SDS011;32676;52.630;4.896;2023-10-09T09:36:53;18.38;;;5.53;;
46941;SDS011;32676;52.630;4.896;2023-10-09T09:39:24;14.25;;;4.80;;
46941;SDS011;32676;52.630;4.896;2023-10-09T09:41:55;18.90;;;5.80;;
46941;SDS011;32676;52.630;4.896;2023-10-09T09:44:28;22.53;;;4.47;;
46941;SDS011;32676;52.630;4.896;2023-10-09T09:46:58;12.38;;;4.30;;
46941;SDS011;32676;52.630;4.896;2023-10-09T09:49:26;15.88;;;5.22;;
46941;SDS011;32676;52.630;4.896;2023-10-09T09:51:58;19.45;;;4.47;;
46941;SDS011;32676;52.630;4.896;2023-10-09T09:54:34;10.32;;;4.15;;
46941;SDS011;32676;52.630;4.896;2023-10-09T09:57:02;18.35;;;5.63;;
46941;SDS011;32676;52.630;4.896;2023-10-09T09:59:33;16.70;;;5.10;;
46941;SDS011;32676;52.630;4.896;2023-10-09T10:02:10;16.08;;;3.88;;
46941;SDS011;32676;52.630;4.896;2023-10-09T10:04:45;15.20;;;4.70;;
46941;SDS011;32676;52.630;4.896;2023-10-09T10:07:17;13.98;;;5.07;;
46941;SDS011;32676;52.630;4.896;2023-10-09T10:09:46;19.55;;;4.40;;
46941;SDS011;32676;52.630;4.896;2023-10-09T10:12:48;20.50;;;5.05;;
46941;SDS011;32676;52.630;4.896;2023-10-09T10:15:25;14.30;;;4.95;;
46941;SDS011;32676;52.630;4.896;2023-10-09T10:18:29;15.23;;;4.28;;
46941;SDS011;32676;52.630;4.896;2023-10-09T10:21:09;12.80;;;4.60;;
46941;SDS011;32676;52.630;4.896;2023-10-09T10:23:42;23.42;;;5.30;;
46941;SDS011;32676;52.630;4.896;2023-10-09T10:26:18;10.38;;;4.90;;
46941;SDS011;32676;52.630;4.896;2023-10-09T10:31:55;13.25;;;4.50;;
46941;SDS011;32676;52.630;4.896;2023-10-09T10:34:25;12.35;;;4.43;;
46941;SDS011;32676;52.630;4.896;2023-10-09T10:36:52;19.88;;;4.63;;
46941;SDS011;32676;52.630;4.896;2023-10-09T10:39:25;18.02;;;5.03;;
46941;SDS011;32676;52.630;4.896;2023-10-09T10:42:24;16.60;;;5.88;;
46941;SDS011;32676;52.630;4.896;2023-10-09T10:44:59;8.18;;;3.95;;
46941;SDS011;32676;52.630;4.896;2023-10-09T10:47:28;16.98;;;4.32;;
46941;SDS011;32676;52.630;4.896;2023-10-09T10:50:00;13.38;;;4.45;;
46941;SDS011;32676;52.630;4.896;2023-10-09T10:52:36;23.98;;;6.43;;
46941;SDS011;32676;52.630;4.896;2023-10-09T10:55:11;20.05;;;7.13;;
46941;SDS011;32676;52.630;4.896;2023-10-09T10:58:14;14.27;;;5.13;;
46941;SDS011;32676;52.630;4.896;2023-10-09T11:00:51;22.80;;;6.65;;
46941;SDS011;32676;52.630;4.896;2023-10-09T11:03:36;19.20;;;4.80;;
46941;SDS011;32676;52.630;4.896;2023-10-09T11:06:24;20.75;;;5.30;;
46941;SDS011;32676;52.630;4.896;2023-10-09T11:09:00;19.10;;;4.85;;
46941;SDS011;32676;52.630;4.896;2023-10-09T11:11:36;15.27;;;4.65;;
46941;SDS011;32676;52.630;4.896;2023-10-09T11:14:08;19.27;;;4.47;;
46941;SDS011;32676;52.630;4.896;2023-10-09T11:16:39;15.90;;;3.58;;
46941;SDS011;32676;52.630;4.896;2023-10-09T11:19:08;16.15;;;4.07;;
46941;SDS011;32676;52.630;4.896;2023-10-09T11:21:50;17.02;;;6.15;;
46941;SDS011;32676;52.630;4.896;2023-10-09T11:24:24;15.13;;;4.43;;
46941;SDS011;32676;52.630;4.896;2023-10-09T11:26:52;20.58;;;4.90;;
46941;SDS011;32676;52.630;4.896;2023-10-09T11:29:29;16.77;;;4.57;;
46941;SDS011;32676;52.630;4.896;2023-10-09T11:32:14;21.30;;;4.70;;
46941;SDS011;32676;52.630;4.896;2023-10-09T11:34:43;13.85;;;4.20;;
46941;SDS011;32676;52.630;4.896;2023-10-09T11:37:17;10.18;;;4.00;;
46941;SDS011;32676;52.630;4.896;2023-10-09T11:40:03;16.67;;;4.90;;
46941;SDS011;32676;52.630;4.896;2023-10-09T11:42:49;15.75;;;5.30;;
46941;SDS011;32676;52.630;4.896;2023-10-09T11:45:19;20.75;;;4.82;;
46941;SDS011;32676;52.630;4.896;2023-10-09T11:47:49;19.33;;;5.00;;
46941;SDS011;32676;52.630;4.896;2023-10-09T11:50:41;14.07;;;4.90;;
46941;SDS011;32676;52.630;4.896;2023-10-09T11:53:16;21.25;;;3.60;;
46941;SDS011;32676;52.630;4.896;2023-10-09T11:55:58;16.50;;;4.35;;
46941;SDS011;32676;52.630;4.896;2023-10-09T11:58:26;18.85;;;4.20;;
46941;SDS011;32676;52.630;4.896;2023-10-09T12:00:52;20.90;;;3.72;;
46941;SDS011;32676;52.630;4.896;2023-10-09T12:03:22;12.73;;;4.97;;
46941;SDS011;32676;52.630;4.896;2023-10-09T12:05:53;15.35;;;4.15;;
46941;SDS011;32676;52.630;4.896;2023-10-09T12:08:21;18.10;;;4.38;;
46941;SDS011;32676;52.630;4.896;2023-10-09T12:10:51;22.40;;;6.10;;
46941;SDS011;32676;52.630;4.896;2023-10-09T12:13:19;19.10;;;4.93;;
46941;SDS011;32676;52.630;4.896;2023-10-09T12:15:48;20.95;;;4.05;;
46941;SDS011;32676;52.630;4.896;2023-10-09T12:18:19;17.02;;;5.20;;
46941;SDS011;32676;52.630;4.896;2023-10-09T12:20:47;18.85;;;4.55;;
46941;SDS011;32676;52.630;4.896;2023-10-09T12:23:16;17.13;;;5.63;;
46941;SDS011;32676;52.630;4.896;2023-10-09T12:25:43;19.27;;;4.63;;
46941;SDS011;32676;52.630;4.896;2023-10-09T12:28:11;14.52;;;4.53;;
46941;SDS011;32676;52.630;4.896;2023-10-09T12:30:38;19.45;;;4.70;;
46941;SDS011;32676;52.630;4.896;2023-10-09T12:33:06;20.45;;;5.90;;
46941;SDS011;32676;52.630;4.896;2023-10-09T12:35:37;18.30;;;5.22;;
46941;SDS011;32676;52.630;4.896;2023-10-09T12:38:05;20.08;;;4.15;;
46941;SDS011;32676;52.630;4.896;2023-10-09T12:40:35;19.88;;;6.55;;
46941;SDS011;32676;52.630;4.896;2023-10-09T12:43:03;13.90;;;4.57;;
46941;SDS011;32676;52.630;4.896;2023-10-09T12:45:33;20.63;;;5.05;;
46941;SDS011;32676;52.630;4.896;2023-10-09T12:48:00;15.02;;;4.35;;
46941;SDS011;32676;52.630;4.896;2023-10-09T12:50:29;19.02;;;6.70;;
46941;SDS011;32676;52.630;4.896;2023-10-09T12:52:58;24.15;;;7.18;;
46941;SDS011;32676;52.630;4.896;2023-10-09T12:55:34;15.43;;;4.55;;
46941;SDS011;32676;52.630;4.896;2023-10-09T12:58:01;18.05;;;4.80;;
46941;SDS011;32676;52.630;4.896;2023-10-09T13:00:31;19.23;;;5.43;;
46941;SDS011;32676;52.630;4.896;2023-10-09T13:02:58;21.85;;;5.05;;
46941;SDS011;32676;52.630;4.896;2023-10-09T13:05:27;18.05;;;4.22;;
46941;SDS011;32676;52.630;4.896;2023-10-09T13:07:56;20.33;;;5.47;;
46941;SDS011;32676;52.630;4.896;2023-10-09T13:10:23;16.38;;;4.50;;
46941;SDS011;32676;52.630;4.896;2023-10-09T13:12:50;12.82;;;4.35;;
46941;SDS011;32676;52.630;4.896;2023-10-09T13:15:20;14.07;;;4.57;;
46941;SDS011;32676;52.630;4.896;2023-10-09T13:17:47;12.52;;;4.15;;
46941;SDS011;32676;52.630;4.896;2023-10-09T13:20:14;15.50;;;5.05;;
46941;SDS011;32676;52.630;4.896;2023-10-09T13:22:41;22.38;;;4.97;;
46941;SDS011;32676;52.630;4.896;2023-10-09T13:25:09;12.63;;;4.22;;
46941;SDS011;32676;52.630;4.896;2023-10-09T13:27:41;15.93;;;3.75;;
46941;SDS011;32676;52.630;4.896;2023-10-09T13:30:09;13.82;;;3.80;;
46941;SDS011;32676;52.630;4.896;2023-10-09T13:32:47;10.68;;;3.38;;
46941;SDS011;32676;52.630;4.896;2023-10-09T13:35:15;11.98;;;4.47;;
46941;SDS011;32676;52.630;4.896;2023-10-09T13:37:43;15.25;;;4.13;;
46941;SDS011;32676;52.630;4.896;2023-10-09T13:40:20;21.80;;;4.40;;
46941;SDS011;32676;52.630;4.896;2023-10-09T13:42:53;13.60;;;4.30;;
46941;SDS011;32676;52.630;4.896;2023-10-09T13:45:24;12.98;;;4.40;;
46941;SDS011;32676;52.630;4.896;2023-10-09T13:47:52;19.50;;;6.68;;
46941;SDS011;32676;52.630;4.896;2023-10-09T13:50:19;15.55;;;5.00;;
46941;SDS011;32676;52.630;4.896;2023-10-09T13:52:47;12.88;;;3.97;;
46941;SDS011;32676;52.630;4.896;2023-10-09T13:55:13;15.55;;;4.75;;
46941;SDS011;32676;52.630;4.896;2023-10-09T13:57:42;16.17;;;4.97;;
46941;SDS011;32676;52.630;4.896;2023-10-09T14:00:11;24.17;;;5.20;;
46941;SDS011;32676;52.630;4.896;2023-10-09T14:02:42;18.95;;;4.18;;
46941;SDS011;32676;52.630;4.896;2023-10-09T14:05:10;13.23;;;4.47;;
46941;SDS011;32676;52.630;4.896;2023-10-09T14:07:36;15.25;;;5.07;;
46941;SDS011;32676;52.630;4.896;2023-10-09T14:10:03;18.90;;;4.93;;
46941;SDS011;32676;52.630;4.896;2023-10-09T14:12:43;23.33;;;5.25;;
46941;SDS011;32676;52.630;4.896;2023-10-09T14:15:10;14.82;;;4.53;;
46941;SDS011;32676;52.630;4.896;2023-10-09T14:17:42;22.17;;;5.07;;
46941;SDS011;32676;52.630;4.896;2023-10-09T14:20:11;14.40;;;4.20;;
46941;SDS011;32676;52.630;4.896;2023-10-09T14:22:56;14.02;;;4.15;;
46941;SDS011;32676;52.630;4.896;2023-10-09T14:25:31;13.32;;;4.35;;
46941;SDS011;32676;52.630;4.896;2023-10-09T14:27:59;16.60;;;4.15;;
46941;SDS011;32676;52.630;4.896;2023-10-09T14:30:25;14.13;;;3.63;;
46941;SDS011;32676;52.630;4.896;2023-10-09T14:32:58;13.48;;;3.90;;
46941;SDS011;32676;52.630;4.896;2023-10-09T14:35:27;12.30;;;3.20;;
46941;SDS011;32676;52.630;4.896;2023-10-09T14:37:55;12.80;;;3.65;;
46941;SDS011;32676;52.630;4.896;2023-10-09T14:40:22;10.02;;;3.00;;
46941;SDS011;32676;52.630;4.896;2023-10-09T14:42:54;18.25;;;3.75;;
46941;SDS011;32676;52.630;4.896;2023-10-09T14:45:24;12.95;;;4.15;;
46941;SDS011;32676;52.630;4.896;2023-10-09T14:47:51;17.15;;;3.47;;
46941;SDS011;32676;52.630;4.896;2023-10-09T14:50:18;15.60;;;4.13;;
46941;SDS011;32676;52.630;4.896;2023-10-09T14:52:47;11.70;;;4.00;;
46941;SDS011;32676;52.630;4.896;2023-10-09T14:55:16;16.63;;;4.75;;
46941;SDS011;32676;52.630;4.896;2023-10-09T14:57:46;19.30;;;5.47;;
46941;SDS011;32676;52.630;4.896;2023-10-09T15:00:15;15.45;;;3.88;;
46941;SDS011;32676;52.630;4.896;2023-10-09T15:02:49;26.30;;;5.93;;
46941;SDS011;32676;52.630;4.896;2023-10-09T15:05:16;15.05;;;4.05;;
46941;SDS011;32676;52.630;4.896;2023-10-09T15:07:43;12.55;;;3.25;;
46941;SDS011;32676;52.630;4.896;2023-10-09T15:10:10;16.23;;;3.33;;
46941;SDS011;32676;52.630;4.896;2023-10-09T15:12:40;14.40;;;3.50;;
46941;SDS011;32676;52.630;4.896;2023-10-09T15:15:08;9.70;;;3.25;;
46941;SDS011;32676;52.630;4.896;2023-10-09T15:17:38;17.27;;;4.22;;
46941;SDS011;32676;52.630;4.896;2023-10-09T15:20:12;14.65;;;3.67;;
46941;SDS011;32676;52.630;4.896;2023-10-09T15:22:40;13.25;;;3.90;;